Time;durP1;ratioP1;P1;durP2;ratioP2;P2;SDS_P1;SDS_P2;PMS_P1;PMS_P2;Temp;Humidity;BMP_temperature;BMP_pressure;BME280_temperature;BME280_humidity;BME280_pressure;Samples;Min_cycle;Max_cycle;Signal;HPM_P1;HPM_P2
2023/05/22 00:01:27;;;;;;;18.88;10.18;;;;;;;;;;5070953;28;20048;-75
2023/05/22 00:03:54;;;;;;;16.45;10.52;;;;;;;;;;5065624;28;20045;-75
2023/05/22 00:06:22;;;;;;;14.90;9.57;;;;;;;;;;5063421;28;20044;-75
2023/05/22 00:08:49;;;;;;;16.23;9.90;;;;;;;;;;5063064;28;20052;-75
2023/05/22 00:11:17;;;;;;;13.15;9.07;;;;;;;;;;5062720;28;20059;-75
2023/05/22 00:13:45;;;;;;;13.27;9.00;;;;;;;;;;5068517;28;20045;-75
2023/05/22 00:16:12;;;;;;;15.65;9.80;;;;;;;;;;5066286;28;20483;-75
2023/05/22 00:18:41;;;;;;;16.45;9.82;;;;;;;;;;5066200;28;20064;-75
2023/05/22 00:21:08;;;;;;;17.80;10.32;;;;;;;;;;5066174;28;20143;-75
2023/05/22 00:23:35;;;;;;;14.70;9.15;;;;;;;;;;5061029;28;20427;-75
2023/05/22 00:26:03;;;;;;;16.88;9.80;;;;;;;;;;5066673;28;20056;-75
2023/05/22 00:28:30;;;;;;;13.43;9.48;;;;;;;;;;5058581;28;20137;-75
2023/05/22 00:30:58;;;;;;;15.77;10.35;;;;;;;;;;5068877;28;20049;-75
2023/05/22 00:33:26;;;;;;;14.20;10.07;;;;;;;;;;5067545;28;20507;-74
2023/05/22 00:35:53;;;;;;;14.85;10.02;;;;;;;;;;5064795;28;20098;-75
2023/05/22 00:38:31;;;;;;;15.95;9.82;;;;;;;;;;5063502;28;20483;-75
2023/05/22 00:40:58;;;;;;;13.82;9.82;;;;;;;;;;5061568;28;20480;-75
2023/05/22 00:43:25;;;;;;;17.70;10.05;;;;;;;;;;5061414;28;20045;-75
2023/05/22 00:45:53;;;;;;;15.68;10.45;;;;;;;;;;5065997;28;20491;-75
2023/05/22 00:48:22;;;;;;;18.85;10.30;;;;;;;;;;5067714;28;20093;-75
2023/05/22 00:50:49;;;;;;;16.92;10.60;;;;;;;;;;5068013;28;20052;-75
2023/05/22 00:53:17;;;;;;;13.40;9.95;;;;;;;;;;5065538;28;20060;-75
2023/05/22 00:55:44;;;;;;;20.90;10.23;;;;;;;;;;5069460;28;20052;-74
2023/05/22 00:58:13;;;;;;;15.70;10.00;;;;;;;;;;5066257;28;20078;-74
2023/05/22 01:00:41;;;;;;;13.45;9.20;;;;;;;;;;5068689;28;20479;-74
2023/05/22 01:03:09;;;;;;;17.33;10.20;;;;;;;;;;5066869;28;20132;-74
2023/05/22 01:05:38;;;;;;;15.98;10.10;;;;;;;;;;5060686;28;21072;-74
2023/05/22 01:08:06;;;;;;;12.75;9.52;;;;;;;;;;5068127;28;20551;-73
2023/05/22 01:10:34;;;;;;;15.45;10.00;;;;;;;;;;5064915;28;20057;-73
2023/05/22 01:13:05;;;;;;;14.60;10.55;;;;;;;;;;5067604;28;20056;-73
2023/05/22 01:15:33;;;;;;;16.48;10.60;;;;;;;;;;5065785;28;20056;-73
2023/05/22 01:18:09;;;;;;;15.27;10.75;;;;;;;;;;5067415;28;20404;-73
2023/05/22 01:20:41;;;;;;;16.50;10.82;;;;;;;;;;5067015;28;20064;-72
2023/05/22 01:23:26;;;;;;;18.38;10.90;;;;;;;;;;5058120;28;20213;-73
2023/05/22 01:26:11;;;;;;;15.23;10.00;;;;;;;;;;5066976;28;20143;-73
2023/05/22 01:28:42;;;;;;;14.85;10.20;;;;;;;;;;5051795;28;20052;-73
2023/05/22 01:31:13;;;;;;;19.67;11.20;;;;;;;;;;5063747;28;20055;-74
2023/05/22 01:33:44;;;;;;;16.63;9.63;;;;;;;;;;5059531;28;20065;-74
2023/05/22 01:36:13;;;;;;;19.48;12.18;;;;;;;;;;5068765;28;20503;-75
2023/05/22 01:38:41;;;;;;;15.35;11.57;;;;;;;;;;5066441;28;20057;-75
2023/05/22 01:41:09;;;;;;;16.55;10.73;;;;;;;;;;5066173;28;20079;-74
2023/05/22 01:43:37;;;;;;;19.42;12.45;;;;;;;;;;5067899;28;20404;-74
2023/05/22 01:46:05;;;;;;;17.52;11.55;;;;;;;;;;5055494;28;20059;-74
2023/05/22 01:48:34;;;;;;;18.58;11.27;;;;;;;;;;5063326;28;20464;-74
2023/05/22 01:51:03;;;;;;;20.67;12.15;;;;;;;;;;5065304;28;20122;-74
2023/05/22 01:53:34;;;;;;;26.23;12.80;;;;;;;;;;5068575;28;20385;-75
2023/05/22 01:56:04;;;;;;;21.92;12.80;;;;;;;;;;5057322;28;20514;-75
2023/05/22 01:58:34;;;;;;;19.48;12.38;;;;;;;;;;5066697;28;20044;-76
2023/05/22 02:01:02;;;;;;;18.33;12.23;;;;;;;;;;5067905;28;20053;-75
2023/05/22 02:03:31;;;;;;;17.63;11.40;;;;;;;;;;5059875;28;20058;-76
2023/05/22 02:06:00;;;;;;;18.70;11.77;;;;;;;;;;5063183;28;20545;-75
2023/05/22 02:08:28;;;;;;;17.50;12.13;;;;;;;;;;5066636;28;20052;-75
2023/05/22 02:10:56;;;;;;;20.15;12.45;;;;;;;;;;5068228;28;20059;-75
2023/05/22 02:13:23;;;;;;;16.80;11.73;;;;;;;;;;5073015;28;20061;-74
2023/05/22 02:15:51;;;;;;;24.80;13.32;;;;;;;;;;5069168;28;20050;-75
2023/05/22 02:18:18;;;;;;;16.58;11.57;;;;;;;;;;5066547;28;20087;-74
2023/05/22 02:20:46;;;;;;;17.30;10.90;;;;;;;;;;5072559;28;20055;-74
2023/05/22 02:23:15;;;;;;;21.10;12.50;;;;;;;;;;5069085;28;20059;-75
2023/05/22 02:25:42;;;;;;;20.20;12.48;;;;;;;;;;5072420;28;20052;-76
2023/05/22 02:28:09;;;;;;;20.77;12.63;;;;;;;;;;5075078;28;20059;-75
2023/05/22 02:30:36;;;;;;;22.33;13.18;;;;;;;;;;5066599;28;20075;-76
2023/05/22 02:33:05;;;;;;;20.58;12.30;;;;;;;;;;5070414;28;20691;-76
2023/05/22 02:35:32;;;;;;;18.45;11.70;;;;;;;;;;5071423;28;20480;-77
2023/05/22 02:37:59;;;;;;;18.00;12.38;;;;;;;;;;5072419;28;20064;-77
2023/05/22 02:40:28;;;;;;;19.25;12.18;;;;;;;;;;5073124;28;20468;-77
2023/05/22 02:42:55;;;;;;;21.75;13.05;;;;;;;;;;5071441;28;20413;-77
2023/05/22 02:45:22;;;;;;;20.20;12.68;;;;;;;;;;5067018;28;20063;-77
2023/05/22 02:47:50;;;;;;;22.98;12.90;;;;;;;;;;5061764;28;20048;-77
2023/05/22 02:50:17;;;;;;;25.40;14.30;;;;;;;;;;5069627;28;20044;-76
2023/05/22 02:52:45;;;;;;;21.20;12.40;;;;;;;;;;5072035;28;20052;-76
2023/05/22 02:55:12;;;;;;;20.42;12.07;;;;;;;;;;5071113;28;20123;-77
2023/05/22 02:57:41;;;;;;;21.23;12.30;;;;;;;;;;5071534;28;20074;-77
2023/05/22 03:00:10;;;;;;;22.40;12.27;;;;;;;;;;5070616;28;20052;-77
2023/05/22 03:02:37;;;;;;;25.20;11.90;;;;;;;;;;5067938;28;20500;-76
2023/05/22 03:05:05;;;;;;;18.00;11.57;;;;;;;;;;5072096;28;20045;-77
2023/05/22 03:07:33;;;;;;;21.10;12.00;;;;;;;;;;5068377;28;20052;-77
2023/05/22 03:10:01;;;;;;;20.60;11.82;;;;;;;;;;5071876;28;20667;-77
2023/05/22 03:12:28;;;;;;;21.00;11.68;;;;;;;;;;5076287;28;20048;-77
2023/05/22 03:14:56;;;;;;;19.33;11.68;;;;;;;;;;5070525;28;20069;-77
2023/05/22 03:17:24;;;;;;;19.55;12.20;;;;;;;;;;5068346;28;20072;-77
2023/05/22 03:19:51;;;;;;;20.10;11.60;;;;;;;;;;5070506;28;20087;-77
2023/05/22 03:22:18;;;;;;;21.50;11.93;;;;;;;;;;5069723;28;20510;-77
2023/05/22 03:24:45;;;;;;;19.08;12.23;;;;;;;;;;5068477;28;20048;-77
2023/05/22 03:27:15;;;;;;;20.38;11.40;;;;;;;;;;5067612;28;20044;-77
2023/05/22 03:29:42;;;;;;;26.48;12.35;;;;;;;;;;5071035;28;20044;-76
2023/05/22 03:32:10;;;;;;;19.67;11.95;;;;;;;;;;5064594;28;20186;-77
2023/05/22 03:34:38;;;;;;;19.70;11.48;;;;;;;;;;5069396;28;20060;-77
2023/05/22 03:37:05;;;;;;;20.70;11.93;;;;;;;;;;5072888;28;20049;-77
2023/05/22 03:39:32;;;;;;;19.05;11.77;;;;;;;;;;5072285;28;20492;-77
2023/05/22 03:41:59;;;;;;;21.90;12.52;;;;;;;;;;5070646;28;20059;-77
2023/05/22 03:44:27;;;;;;;21.02;12.63;;;;;;;;;;5066970;28;20094;-77
2023/05/22 03:46:54;;;;;;;19.98;12.40;;;;;;;;;;5073596;28;20053;-77
2023/05/22 03:49:23;;;;;;;18.92;11.40;;;;;;;;;;5071475;28;20060;-77
2023/05/22 03:51:50;;;;;;;21.38;12.60;;;;;;;;;;5074136;28;20095;-77
2023/05/22 03:54:17;;;;;;;23.25;12.63;;;;;;;;;;5068990;28;20224;-77
2023/05/22 03:56:44;;;;;;;20.08;12.32;;;;;;;;;;5071199;28;20259;-77
2023/05/22 03:59:12;;;;;;;18.63;12.13;;;;;;;;;;5072587;28;20040;-77
2023/05/22 04:01:39;;;;;;;24.98;12.70;;;;;;;;;;5071940;28;20514;-77
2023/05/22 04:04:06;;;;;;;22.80;12.05;;;;;;;;;;5067531;28;20055;-77
2023/05/22 04:06:41;;;;;;;22.20;13.32;;;;;;;;;;5070514;28;20048;-77
2023/05/22 04:09:10;;;;;;;22.38;12.77;;;;;;;;;;5068869;28;20052;-77
2023/05/22 04:11:38;;;;;;;21.92;13.05;;;;;;;;;;5069941;28;20076;-77
2023/05/22 04:14:05;;;;;;;22.67;12.45;;;;;;;;;;5069146;28;20071;-77
2023/05/22 04:16:33;;;;;;;22.10;12.32;;;;;;;;;;5069713;28;20049;-77
2023/05/22 04:19:02;;;;;;;20.05;11.32;;;;;;;;;;5065074;28;20045;-77
2023/05/22 04:21:29;;;;;;;21.65;11.02;;;;;;;;;;5066575;28;20048;-77
2023/05/22 04:23:57;;;;;;;20.88;11.98;;;;;;;;;;5066036;28;20049;-77
2023/05/22 04:26:28;;;;;;;23.10;12.82;;;;;;;;;;5071490;28;20044;-77
2023/05/22 04:28:55;;;;;;;21.55;12.85;;;;;;;;;;5066382;28;20524;-77
2023/05/22 04:31:23;;;;;;;22.75;12.57;;;;;;;;;;5066191;28;20449;-77
2023/05/22 04:33:50;;;;;;;22.52;12.00;;;;;;;;;;5071987;28;20052;-76
2023/05/22 04:36:21;;;;;;;19.20;10.50;;;;;;;;;;5074667;28;20515;-76
2023/05/22 04:38:49;;;;;;;18.30;11.10;;;;;;;;;;5063266;28;20044;-76
2023/05/22 04:41:17;;;;;;;15.63;9.93;;;;;;;;;;5065941;28;20075;-76
2023/05/22 04:43:47;;;;;;;15.63;8.50;;;;;;;;;;5067041;28;20068;-77
2023/05/22 04:46:14;;;;;;;15.07;8.40;;;;;;;;;;5068074;28;20059;-76
2023/05/22 04:48:41;;;;;;;15.90;8.30;;;;;;;;;;5066442;28;20049;-76
2023/05/22 04:51:09;;;;;;;11.07;7.78;;;;;;;;;;5068772;28;20055;-77
2023/05/22 04:53:37;;;;;;;15.07;7.53;;;;;;;;;;5064485;28;20139;-76
2023/05/22 04:56:04;;;;;;;16.10;7.55;;;;;;;;;;5070511;28;20136;-77
2023/05/22 04:58:33;;;;;;;10.20;6.15;;;;;;;;;;5068298;28;20048;-76
2023/05/22 05:01:02;;;;;;;11.18;5.97;;;;;;;;;;5068252;28;20056;-76
2023/05/22 05:03:29;;;;;;;11.93;6.13;;;;;;;;;;5067025;28;20480;-76
2023/05/22 05:05:56;;;;;;;15.65;5.97;;;;;;;;;;5066513;28;20041;-76
2023/05/22 05:08:23;;;;;;;10.20;5.03;;;;;;;;;;5061967;28;20044;-76
2023/05/22 05:10:51;;;;;;;16.55;5.72;;;;;;;;;;5064645;28;20056;-76
2023/05/22 05:13:18;;;;;;;14.50;6.10;;;;;;;;;;5072173;28;20486;-76
2023/05/22 05:15:47;;;;;;;10.95;5.80;;;;;;;;;;5060407;28;20056;-77
2023/05/22 05:18:14;;;;;;;12.85;5.50;;;;;;;;;;5065139;28;20043;-76
2023/05/22 05:20:41;;;;;;;7.47;4.72;;;;;;;;;;5069118;28;20052;-76
2023/05/22 05:23:09;;;;;;;14.98;5.57;;;;;;;;;;5061173;28;20181;-76
2023/05/22 05:25:37;;;;;;;10.98;5.10;;;;;;;;;;5064521;28;20052;-74
2023/05/22 05:28:09;;;;;;;13.50;5.28;;;;;;;;;;5067294;28;20123;-74
2023/05/22 05:30:36;;;;;;;8.30;4.72;;;;;;;;;;5066922;28;20044;-76
2023/05/22 05:33:05;;;;;;;12.98;4.97;;;;;;;;;;5067394;28;20056;-79
2023/05/22 05:35:32;;;;;;;11.75;4.80;;;;;;;;;;5066752;28;20503;-76
2023/05/22 05:38:00;;;;;;;9.13;3.88;;;;;;;;;;5070608;28;20524;-76
2023/05/22 05:40:27;;;;;;;7.97;4.07;;;;;;;;;;5060533;28;20056;-77
2023/05/22 05:42:55;;;;;;;13.25;4.68;;;;;;;;;;5069763;28;20067;-77
2023/05/22 05:45:22;;;;;;;9.40;3.92;;;;;;;;;;5069953;28;20080;-77
2023/05/22 05:47:49;;;;;;;10.82;3.85;;;;;;;;;;5067415;28;20064;-77
2023/05/22 05:50:18;;;;;;;11.55;4.10;;;;;;;;;;5059532;28;20045;-78
2023/05/22 05:52:45;;;;;;;5.68;3.03;;;;;;;;;;5065633;28;20044;-77
2023/05/22 05:55:12;;;;;;;8.90;3.55;;;;;;;;;;5064099;28;20088;-76
2023/05/22 05:57:40;;;;;;;8.13;3.17;;;;;;;;;;5071703;28;20052;-76
2023/05/22 06:00:10;;;;;;;8.68;3.00;;;;;;;;;;5068214;28;20064;-77
2023/05/22 06:02:37;;;;;;;8.75;3.50;;;;;;;;;;5073887;28;20052;-77
2023/05/22 06:05:05;;;;;;;4.78;2.70;;;;;;;;;;5067626;28;20698;-74
2023/05/22 06:07:36;;;;;;;7.28;2.88;;;;;;;;;;5067695;28;20488;-73
2023/05/22 06:10:04;;;;;;;5.45;2.60;;;;;;;;;;5068377;28;20075;-73
2023/05/22 06:12:31;;;;;;;8.88;3.25;;;;;;;;;;5070672;28;20077;-73
2023/05/22 06:14:58;;;;;;;6.70;2.88;;;;;;;;;;5068129;28;20381;-73
2023/05/22 06:17:26;;;;;;;7.50;3.17;;;;;;;;;;5064404;28;20054;-73
2023/05/22 06:19:53;;;;;;;7.63;3.30;;;;;;;;;;5065783;28;20048;-73
2023/05/22 06:22:20;;;;;;;7.55;3.50;;;;;;;;;;5068938;28;20044;-72
2023/05/22 06:24:49;;;;;;;8.68;3.33;;;;;;;;;;5067537;28;20049;-72
2023/05/22 06:27:16;;;;;;;7.63;3.00;;;;;;;;;;5066359;28;20048;-73
2023/05/22 06:29:43;;;;;;;13.45;3.58;;;;;;;;;;5067997;28;20052;-72
2023/05/22 06:32:10;;;;;;;8.10;3.92;;;;;;;;;;5057736;28;20049;-73
2023/05/22 06:34:39;;;;;;;13.75;3.88;;;;;;;;;;5066323;28;20511;-73
2023/05/22 06:37:06;;;;;;;11.80;3.75;;;;;;;;;;5063628;28;20045;-73
2023/05/22 06:39:33;;;;;;;9.02;3.75;;;;;;;;;;5066366;28;20056;-73
2023/05/22 06:42:02;;;;;;;7.22;3.63;;;;;;;;;;5065023;28;20092;-73
2023/05/22 06:44:29;;;;;;;9.88;4.20;;;;;;;;;;5066599;28;20041;-73
2023/05/22 06:46:56;;;;;;;9.00;4.80;;;;;;;;;;5061629;28;20518;-73
2023/05/22 06:49:24;;;;;;;10.77;4.43;;;;;;;;;;5064483;28;20502;-73
2023/05/22 06:51:51;;;;;;;15.68;4.20;;;;;;;;;;5063984;28;20045;-73
2023/05/22 06:54:20;;;;;;;10.25;4.50;;;;;;;;;;5065979;28;20052;-73
2023/05/22 06:56:47;;;;;;;9.13;4.25;;;;;;;;;;5068387;28;20053;-73
2023/05/22 06:59:16;;;;;;;14.57;4.30;;;;;;;;;;5066329;28;20044;-73
2023/05/22 07:01:43;;;;;;;11.07;4.70;;;;;;;;;;5064751;28;20052;-73
2023/05/22 07:04:12;;;;;;;11.55;5.43;;;;;;;;;;5063313;28;20045;-73
2023/05/22 07:06:40;;;;;;;11.77;4.78;;;;;;;;;;5071005;28;20118;-73
2023/05/22 07:09:07;;;;;;;11.02;4.63;;;;;;;;;;5071058;28;20496;-73
2023/05/22 07:11:35;;;;;;;10.25;4.75;;;;;;;;;;5071290;28;20114;-73
2023/05/22 07:14:02;;;;;;;8.60;4.50;;;;;;;;;;5068842;28;20057;-73
2023/05/22 07:16:31;;;;;;;6.45;4.10;;;;;;;;;;5071266;28;20052;-73
2023/05/22 07:18:59;;;;;;;11.82;4.75;;;;;;;;;;5069063;28;20052;-73
2023/05/22 07:21:26;;;;;;;8.32;4.50;;;;;;;;;;5070162;28;20055;-73
2023/05/22 07:23:53;;;;;;;8.70;4.35;;;;;;;;;;5070842;28;20518;-73
2023/05/22 07:26:21;;;;;;;10.13;4.68;;;;;;;;;;5070131;28;20051;-73
2023/05/22 07:28:48;;;;;;;7.10;4.30;;;;;;;;;;5062763;28;20059;-73
2023/05/22 07:31:16;;;;;;;11.05;4.43;;;;;;;;;;5065011;28;20056;-73
2023/05/22 07:33:44;;;;;;;9.18;4.30;;;;;;;;;;5065445;28;20052;-73
2023/05/22 07:36:12;;;;;;;9.73;4.65;;;;;;;;;;5064116;28;20048;-73
2023/05/22 07:38:39;;;;;;;10.43;4.43;;;;;;;;;;5070069;28;20049;-73
2023/05/22 07:41:06;;;;;;;8.43;3.97;;;;;;;;;;5067493;28;20048;-74
2023/05/22 07:43:33;;;;;;;8.55;3.90;;;;;;;;;;5066762;28;20045;-73
2023/05/22 07:46:01;;;;;;;7.82;3.95;;;;;;;;;;5063175;28;20048;-73
2023/05/22 07:48:28;;;;;;;7.38;3.63;;;;;;;;;;5066691;28;20404;-73
2023/05/22 07:50:56;;;;;;;8.10;4.25;;;;;;;;;;5070495;28;20044;-74
2023/05/22 07:53:24;;;;;;;5.93;3.80;;;;;;;;;;5070042;28;20136;-73
2023/05/22 07:55:51;;;;;;;6.45;3.70;;;;;;;;;;5067655;28;20495;-73
2023/05/22 07:58:18;;;;;;;6.60;3.63;;;;;;;;;;5064527;28;20052;-74
2023/05/22 08:00:46;;;;;;;7.68;3.63;;;;;;;;;;5067988;28;20063;-73
2023/05/22 08:03:13;;;;;;;7.28;3.75;;;;;;;;;;5065159;28;20060;-74
2023/05/22 08:05:40;;;;;;;8.65;3.50;;;;;;;;;;5064710;28;20491;-73
2023/05/22 08:08:10;;;;;;;5.72;3.30;;;;;;;;;;5067766;28;20040;-73
2023/05/22 08:10:38;;;;;;;9.35;4.32;;;;;;;;;;5059935;28;20063;-73
2023/05/22 08:13:05;;;;;;;8.90;3.92;;;;;;;;;;5060381;28;20151;-73
2023/05/22 08:15:33;;;;;;;8.35;4.10;;;;;;;;;;5058375;28;20159;-73
2023/05/22 08:18:00;;;;;;;11.50;3.35;;;;;;;;;;5068754;28;20071;-73
2023/05/22 08:20:27;;;;;;;6.30;3.08;;;;;;;;;;5069607;28;20494;-73
2023/05/22 08:22:55;;;;;;;5.00;3.22;;;;;;;;;;5070798;28;20044;-73
2023/05/22 08:25:24;;;;;;;6.20;2.70;;;;;;;;;;5066312;28;20198;-74
2023/05/22 08:27:51;;;;;;;6.53;3.03;;;;;;;;;;5070079;28;20051;-73
2023/05/22 08:30:20;;;;;;;4.25;2.38;;;;;;;;;;5069572;28;20076;-74
2023/05/22 08:32:47;;;;;;;4.10;2.33;;;;;;;;;;5069307;28;20064;-74
2023/05/22 08:35:14;;;;;;;4.93;2.20;;;;;;;;;;5070409;28;20169;-73
2023/05/22 08:37:42;;;;;;;3.63;2.30;;;;;;;;;;5062642;28;20055;-74
2023/05/22 08:40:11;;;;;;;6.10;2.45;;;;;;;;;;5063484;28;20377;-74
2023/05/22 08:42:40;;;;;;;5.70;2.30;;;;;;;;;;5066036;28;20087;-73
2023/05/22 08:45:08;;;;;;;6.65;2.17;;;;;;;;;;5067743;28;20063;-73
2023/05/22 08:47:36;;;;;;;3.63;2.50;;;;;;;;;;5060658;28;20048;-73
2023/05/22 08:50:03;;;;;;;2.80;1.85;;;;;;;;;;5069919;28;20052;-74
2023/05/22 08:52:34;;;;;;;3.95;2.33;;;;;;;;;;5068756;28;20052;-74
2023/05/22 08:55:04;;;;;;;3.95;2.13;;;;;;;;;;5064765;28;20454;-73
2023/05/22 08:57:32;;;;;;;3.67;2.00;;;;;;;;;;5067821;28;20093;-73
2023/05/22 09:00:00;;;;;;;4.35;2.13;;;;;;;;;;5068568;28;20048;-74
2023/05/22 09:02:28;;;;;;;3.03;2.20;;;;;;;;;;5068845;28;20049;-73
2023/05/22 09:04:56;;;;;;;3.85;2.00;;;;;;;;;;5066042;28;20053;-74
2023/05/22 09:07:24;;;;;;;4.32;2.30;;;;;;;;;;5067290;28;20041;-74
2023/05/22 09:09:51;;;;;;;2.65;1.85;;;;;;;;;;5067389;28;20044;-74
2023/05/22 09:12:18;;;;;;;4.53;1.67;;;;;;;;;;5071650;28;20174;-74
2023/05/22 09:14:46;;;;;;;3.00;1.92;;;;;;;;;;5069587;28;20044;-73
2023/05/22 09:17:16;;;;;;;3.78;1.80;;;;;;;;;;5068746;28;20074;-74
2023/05/22 09:19:45;;;;;;;3.28;1.65;;;;;;;;;;5069476;28;20489;-74
2023/05/22 09:22:12;;;;;;;3.22;2.00;;;;;;;;;;5066267;28;20053;-74
2023/05/22 09:24:41;;;;;;;3.22;1.77;;;;;;;;;;5069854;28;20112;-74
2023/05/22 09:27:09;;;;;;;2.60;1.85;;;;;;;;;;5068232;28;20048;-73
2023/05/22 09:29:48;;;;;;;3.25;1.60;;;;;;;;;;5063013;28;20088;-74
2023/05/22 09:32:17;;;;;;;4.50;2.00;;;;;;;;;;5057332;28;20127;-74
2023/05/22 09:34:45;;;;;;;2.40;1.85;;;;;;;;;;5061217;28;20060;-74
2023/05/22 09:37:13;;;;;;;2.45;1.75;;;;;;;;;;5061763;28;20045;-74
2023/05/22 09:39:40;;;;;;;2.08;1.60;;;;;;;;;;5061918;28;20044;-74
2023/05/22 09:42:10;;;;;;;3.67;1.90;;;;;;;;;;5063139;28;20048;-74
2023/05/22 09:44:37;;;;;;;3.22;1.85;;;;;;;;;;5066313;28;20090;-74
2023/05/22 09:47:07;;;;;;;2.55;1.90;;;;;;;;;;5061302;28;20041;-74
2023/05/22 09:49:42;;;;;;;3.35;1.88;;;;;;;;;;5061260;28;20083;-74
2023/05/22 09:52:11;;;;;;;5.20;2.40;;;;;;;;;;5059767;28;20074;-74
2023/05/22 09:54:43;;;;;;;3.95;2.40;;;;;;;;;;5072178;28;20057;-74
2023/05/22 09:57:13;;;;;;;3.58;2.53;;;;;;;;;;5059349;28;20056;-74
2023/05/22 09:59:41;;;;;;;4.28;3.20;;;;;;;;;;5065100;28;20101;-74
2023/05/22 10:02:09;;;;;;;4.53;2.75;;;;;;;;;;5060098;28;20135;-74
2023/05/22 10:04:39;;;;;;;4.68;3.00;;;;;;;;;;5057071;28;20056;-74
2023/05/22 10:07:06;;;;;;;4.30;2.92;;;;;;;;;;5061196;28;20153;-74
2023/05/22 10:09:35;;;;;;;3.45;2.88;;;;;;;;;;5062803;28;20041;-74
2023/05/22 10:12:04;;;;;;;5.15;3.25;;;;;;;;;;5063626;28;20411;-74
2023/05/22 10:14:31;;;;;;;4.85;3.28;;;;;;;;;;5064017;28;20083;-74
2023/05/22 10:17:00;;;;;;;3.50;3.08;;;;;;;;;;5063515;28;20053;-74
2023/05/22 10:19:30;;;;;;;4.50;3.65;;;;;;;;;;5067214;28;20049;-73
2023/05/22 10:21:58;;;;;;;5.70;3.40;;;;;;;;;;5063476;28;20049;-74
2023/05/22 10:24:26;;;;;;;6.90;3.92;;;;;;;;;;5067112;28;20507;-74
2023/05/22 10:26:54;;;;;;;4.63;3.60;;;;;;;;;;5064871;28;20044;-74
2023/05/22 10:29:23;;;;;;;6.43;3.78;;;;;;;;;;5069934;28;20044;-74
2023/05/22 10:31:54;;;;;;;5.65;3.97;;;;;;;;;;5065139;28;20412;-74
2023/05/22 10:34:25;;;;;;;6.60;4.05;;;;;;;;;;5065694;28;20049;-73
2023/05/22 10:36:57;;;;;;;4.72;3.80;;;;;;;;;;5065530;28;20558;-74
2023/05/22 10:39:34;;;;;;;5.60;3.95;;;;;;;;;;5065748;28;20047;-74
2023/05/22 10:42:01;;;;;;;8.63;3.97;;;;;;;;;;5073592;28;20530;-74
2023/05/22 10:44:28;;;;;;;6.40;4.18;;;;;;;;;;5069648;28;20049;-74
2023/05/22 10:46:55;;;;;;;6.53;4.25;;;;;;;;;;5068718;28;20048;-73
2023/05/22 10:49:23;;;;;;;7.32;3.88;;;;;;;;;;5071881;28;20496;-74
2023/05/22 10:51:50;;;;;;;5.60;4.15;;;;;;;;;;5066991;28;20049;-74
2023/05/22 10:54:17;;;;;;;9.55;4.25;;;;;;;;;;5071297;28;20703;-74
2023/05/22 10:56:46;;;;;;;8.43;4.35;;;;;;;;;;5071147;28;20049;-74
2023/05/22 10:59:13;;;;;;;6.35;4.53;;;;;;;;;;5067085;28;20052;-74
2023/05/22 11:01:40;;;;;;;5.45;3.67;;;;;;;;;;5070564;28;20036;-74
2023/05/22 11:04:11;;;;;;;6.78;4.43;;;;;;;;;;5067892;28;20048;-74
2023/05/22 11:06:40;;;;;;;5.53;4.53;;;;;;;;;;5073519;28;20048;-75
2023/05/22 11:09:27;;;;;;;5.32;4.00;;;;;;;;;;5069511;28;20052;-75
2023/05/22 11:12:19;;;;;;;5.30;3.78;;;;;;;;;;5070059;28;20106;-75
2023/05/22 11:14:53;;;;;;;4.50;3.40;;;;;;;;;;5064051;28;20044;-74
2023/05/22 11:17:22;;;;;;;6.45;3.83;;;;;;;;;;5070797;28;20515;-74
2023/05/22 11:19:59;;;;;;;7.45;3.60;;;;;;;;;;5070681;28;20056;-74
2023/05/22 11:22:33;;;;;;;6.50;3.55;;;;;;;;;;5069313;28;20480;-75
2023/05/22 11:25:00;;;;;;;6.10;3.58;;;;;;;;;;5076183;28;20134;-74
2023/05/22 11:27:29;;;;;;;4.70;3.22;;;;;;;;;;5069519;28;20048;-74
2023/05/22 11:29:58;;;;;;;5.82;3.72;;;;;;;;;;5067248;28;20048;-75
2023/05/22 11:32:25;;;;;;;4.65;3.33;;;;;;;;;;5062373;28;20076;-75
2023/05/22 11:34:52;;;;;;;5.95;3.90;;;;;;;;;;5071375;28;20210;-75
2023/05/22 11:37:20;;;;;;;6.07;4.18;;;;;;;;;;5067765;28;20044;-74
2023/05/22 11:39:51;;;;;;;7.72;4.00;;;;;;;;;;5070417;28;20052;-75
2023/05/22 11:42:19;;;;;;;8.68;4.60;;;;;;;;;;5060205;28;20056;-75
2023/05/22 11:44:47;;;;;;;5.28;4.00;;;;;;;;;;5069806;28;20048;-74
2023/05/22 11:47:14;;;;;;;6.47;3.92;;;;;;;;;;5070100;28;20052;-75
2023/05/22 11:49:42;;;;;;;5.13;4.07;;;;;;;;;;5064714;28;20053;-75
2023/05/22 11:52:09;;;;;;;9.27;4.32;;;;;;;;;;5067253;28;20562;-75
2023/05/22 11:54:36;;;;;;;6.40;4.68;;;;;;;;;;5065155;28;20040;-75
2023/05/22 11:57:07;;;;;;;11.32;4.10;;;;;;;;;;5066942;28;20059;-75
2023/05/22 11:59:34;;;;;;;6.28;4.30;;;;;;;;;;5071084;28;20051;-75
2023/05/22 12:02:03;;;;;;;8.68;4.90;;;;;;;;;;5068122;28;20061;-75
2023/05/22 12:04:30;;;;;;;6.18;4.30;;;;;;;;;;5067170;28;20057;-75
2023/05/22 12:06:58;;;;;;;6.30;4.22;;;;;;;;;;5071802;28;20051;-75
2023/05/22 12:09:28;;;;;;;6.55;4.60;;;;;;;;;;5070148;28;20132;-74
2023/05/22 12:11:56;;;;;;;8.13;4.55;;;;;;;;;;5071026;28;20079;-76
2023/05/22 12:14:26;;;;;;;6.45;4.10;;;;;;;;;;5072319;28;20055;-76
2023/05/22 12:16:53;;;;;;;7.47;4.35;;;;;;;;;;5070936;28;20056;-76
2023/05/22 12:19:22;;;;;;;7.15;4.57;;;;;;;;;;5068496;28;20415;-76
2023/05/22 12:21:50;;;;;;;6.60;4.28;;;;;;;;;;5070496;28;20053;-75
2023/05/22 12:24:22;;;;;;;8.40;4.40;;;;;;;;;;5066471;28;20044;-76
2023/05/22 12:26:52;;;;;;;7.40;4.70;;;;;;;;;;5069743;28;20127;-77
2023/05/22 12:29:19;;;;;;;8.00;4.93;;;;;;;;;;5070134;28;20051;-76
2023/05/22 12:31:47;;;;;;;5.68;4.20;;;;;;;;;;5063527;28;20055;-76
2023/05/22 12:34:15;;;;;;;7.95;4.30;;;;;;;;;;5067749;28;20445;-76
2023/05/22 12:36:45;;;;;;;5.80;3.92;;;;;;;;;;5061921;28;20058;-77
2023/05/22 12:39:14;;;;;;;6.13;4.35;;;;;;;;;;5064573;28;20066;-76
2023/05/22 12:41:41;;;;;;;5.50;4.32;;;;;;;;;;5067461;28;20084;-76
2023/05/22 12:44:08;;;;;;;5.80;3.75;;;;;;;;;;5069292;28;20135;-76
2023/05/22 12:46:36;;;;;;;6.15;4.20;;;;;;;;;;5067568;28;20048;-76
2023/05/22 12:49:03;;;;;;;6.57;3.90;;;;;;;;;;5066990;28;20129;-76
2023/05/22 12:51:32;;;;;;;7.07;4.20;;;;;;;;;;5062993;28;20044;-76
2023/05/22 12:54:00;;;;;;;6.15;3.90;;;;;;;;;;5060135;28;20052;-76
2023/05/22 12:56:28;;;;;;;5.65;4.57;;;;;;;;;;5061825;28;20068;-76
2023/05/22 12:58:55;;;;;;;6.00;4.65;;;;;;;;;;5067028;28;20539;-77
2023/05/22 13:01:23;;;;;;;8.10;4.80;;;;;;;;;;5066533;28;20056;-76
2023/05/22 13:03:50;;;;;;;7.03;4.55;;;;;;;;;;5066187;28;20052;-77
2023/05/22 13:06:17;;;;;;;7.15;5.10;;;;;;;;;;5061439;28;20106;-76
2023/05/22 13:08:45;;;;;;;8.93;4.80;;;;;;;;;;5062188;28;20056;-77
2023/05/22 13:11:13;;;;;;;5.65;4.30;;;;;;;;;;5062242;28;20052;-77
2023/05/22 13:13:41;;;;;;;7.95;4.88;;;;;;;;;;5073741;28;20045;-77
2023/05/22 13:16:08;;;;;;;7.15;4.90;;;;;;;;;;5067366;28;20052;-77
2023/05/22 13:18:35;;;;;;;7.35;4.80;;;;;;;;;;5068939;28;20052;-77
2023/05/22 13:21:02;;;;;;;7.03;4.30;;;;;;;;;;5066247;28;20048;-77
2023/05/22 13:23:30;;;;;;;7.50;4.63;;;;;;;;;;5066381;28;20041;-77
2023/05/22 13:25:57;;;;;;;6.82;4.93;;;;;;;;;;5065412;28;20403;-77
2023/05/22 13:28:25;;;;;;;7.50;4.45;;;;;;;;;;5066185;28;20044;-77
2023/05/22 13:30:53;;;;;;;6.72;4.28;;;;;;;;;;5067527;28;20163;-77
2023/05/22 13:33:20;;;;;;;7.63;4.22;;;;;;;;;;5063091;28;20073;-77
2023/05/22 13:35:47;;;;;;;6.30;4.00;;;;;;;;;;5063719;28;20063;-78
2023/05/22 13:38:15;;;;;;;9.32;4.45;;;;;;;;;;5060977;28;20641;-77
2023/05/22 13:40:42;;;;;;;6.50;4.03;;;;;;;;;;5061779;28;20048;-74
2023/05/22 13:43:09;;;;;;;6.82;3.80;;;;;;;;;;5066704;28;20051;-75
2023/05/22 13:45:38;;;;;;;7.65;3.83;;;;;;;;;;5063085;28;20131;-74
2023/05/22 13:48:05;;;;;;;6.60;4.00;;;;;;;;;;5059840;28;20069;-74
2023/05/22 13:50:33;;;;;;;6.05;3.90;;;;;;;;;;5057329;28;20049;-75
2023/05/22 13:53:00;;;;;;;6.88;4.20;;;;;;;;;;5072775;28;20056;-74
2023/05/22 13:55:27;;;;;;;5.55;3.97;;;;;;;;;;5065244;28;20048;-75
2023/05/22 13:57:54;;;;;;;4.78;3.92;;;;;;;;;;5068533;28;20619;-74
2023/05/22 14:00:22;;;;;;;5.90;3.97;;;;;;;;;;5069932;28;20516;-74
2023/05/22 14:02:50;;;;;;;7.22;3.90;;;;;;;;;;5067460;28;20412;-74
2023/05/22 14:05:17;;;;;;;7.43;5.00;;;;;;;;;;5068254;28;20056;-74
2023/05/22 14:07:45;;;;;;;5.95;3.90;;;;;;;;;;5069432;28;20467;-74
2023/05/22 14:10:12;;;;;;;5.43;4.00;;;;;;;;;;5067499;28;20082;-75
2023/05/22 14:12:39;;;;;;;5.90;4.28;;;;;;;;;;5071807;28;20056;-74
2023/05/22 14:15:07;;;;;;;5.80;3.90;;;;;;;;;;5070864;28;20048;-73
2023/05/22 14:17:34;;;;;;;5.57;4.22;;;;;;;;;;5069702;28;20055;-73
2023/05/22 14:20:03;;;;;;;4.75;3.80;;;;;;;;;;5070428;28;20079;-73
2023/05/22 14:22:30;;;;;;;5.30;3.65;;;;;;;;;;5068937;28;20047;-73
2023/05/22 14:24:58;;;;;;;5.95;4.03;;;;;;;;;;5069923;28;20052;-75
2023/05/22 14:27:25;;;;;;;5.03;3.65;;;;;;;;;;5070508;28;20051;-75
2023/05/22 14:29:52;;;;;;;5.07;3.53;;;;;;;;;;5067969;28;20045;-75
2023/05/22 14:32:20;;;;;;;5.50;3.55;;;;;;;;;;5065243;28;20404;-76
2023/05/22 14:34:47;;;;;;;7.60;3.88;;;;;;;;;;5070626;28;20063;-76
2023/05/22 14:37:17;;;;;;;6.63;3.63;;;;;;;;;;5068784;28;20059;-75
2023/05/22 14:39:45;;;;;;;5.18;3.60;;;;;;;;;;5062601;28;20136;-76